Time;durP1;ratioP1;P1;durP2;ratioP2;P2;SDS_P1;SDS_P2;PMS_P1;PMS_P2;Temp;Humidity;BMP_temperature;BMP_pressure;BME280_temperature;BME280_humidity;BME280_pressure;Samples;Min_cycle;Max_cycle;Signal;HPM_P1;HPM_P2
2024/01/21 00:01:29;;;;;;;1.20;1.20;;;;;;;0.70;100.00;-23834.84;5032508;28;20203;-72
2024/01/21 00:03:55;;;;;;;1.57;1.47;;;;;;;0.80;100.00;-23837.88;5032643;28;20258;-71
2024/01/21 00:06:21;;;;;;;1.10;1.10;;;;;;;0.64;100.00;-23833.16;5032614;28;20175;-71
2024/01/21 00:08:46;;;;;;;1.27;1.27;;;;;;;0.62;100.00;-23832.72;5032685;28;20263;-74
2024/01/21 00:11:12;;;;;;;1.20;1.20;;;;;;;0.68;100.00;-23834.28;5032424;28;20647;-71
2024/01/21 00:13:37;;;;;;;1.27;1.27;;;;;;;0.85;100.00;-23839.28;5032743;28;20175;-73
2024/01/21 00:16:02;;;;;;;1.47;1.40;;;;;;;0.59;100.00;-23831.72;5038617;28;20647;-75
2024/01/21 00:18:28;;;;;;;1.53;1.47;;;;;;;0.61;100.00;-23832.44;5032715;28;20179;-74
2024/01/21 00:20:53;;;;;;;1.30;1.30;;;;;;;0.80;100.00;-23837.88;5032471;28;20199;-74
2024/01/21 00:23:19;;;;;;;1.17;1.17;;;;;;;0.61;100.00;-23832.28;5032814;28;20183;-72
2024/01/21 00:25:45;;;;;;;1.53;1.43;;;;;;;0.84;100.00;-23839.00;5032039;28;20222;-73
2024/01/21 00:28:10;;;;;;;1.10;1.10;;;;;;;0.81;100.00;-23838.16;5032221;28;20540;-74
2024/01/21 00:30:36;;;;;;;1.10;1.10;;;;;;;0.77;100.00;-23837.00;5032094;28;20184;-73
2024/01/21 00:33:01;;;;;;;1.27;1.27;;;;;;;0.76;100.00;-23836.56;5031923;28;20216;-72
2024/01/21 00:35:26;;;;;;;1.20;1.20;;;;;;;0.92;100.00;-23841.00;5032422;28;20179;-72
2024/01/21 00:37:52;;;;;;;1.50;1.40;;;;;;;0.46;100.00;-23828.00;5032565;28;20176;-71
2024/01/21 00:40:17;;;;;;;1.43;1.33;;;;;;;0.03;100.00;-23815.81;5031949;28;20203;-71
2024/01/21 00:42:43;;;;;;;1.10;1.10;;;;;;;0.37;100.00;-23825.56;5032227;28;20214;-71
2024/01/21 00:45:08;;;;;;;1.27;1.27;;;;;;;0.08;100.00;-23817.25;5032234;28;20260;-73
2024/01/21 00:47:34;;;;;;;1.07;1.07;;;;;;;0.07;100.00;-23816.97;5031367;28;20282;-73
2024/01/21 00:49:59;;;;;;;1.30;1.30;;;;;;;-0.30;100.00;-23806.66;5031779;28;20185;-70
2024/01/21 00:52:25;;;;;;;1.50;1.40;;;;;;;0.30;100.00;-23823.56;5031835;28;20182;-73
2024/01/21 00:54:52;;;;;;;1.00;1.00;;;;;;;0.25;100.00;-23822.25;5031733;28;20658;-75
2024/01/21 00:57:18;;;;;;;1.37;1.30;;;;;;;-0.05;100.00;-23813.69;5031840;28;20175;-72
2024/01/21 00:59:43;;;;;;;1.37;1.37;;;;;;;0.07;100.00;-23817.13;5030974;28;20312;-73
2024/01/21 01:02:10;;;;;;;0.90;0.90;;;;;;;-0.04;100.00;-23814.09;5031446;28;20615;-73
2024/01/21 01:04:36;;;;;;;1.20;1.20;;;;;;;0.10;100.00;-23817.97;5031612;28;20249;-73
2024/01/21 01:07:01;;;;;;;1.10;1.10;;;;;;;0.05;100.00;-23816.41;5032010;28;20262;-70
2024/01/21 01:09:27;;;;;;;1.10;1.10;;;;;;;0.10;100.00;-23817.81;5030238;28;20290;-71
2024/01/21 01:11:52;;;;;;;1.10;1.10;;;;;;;0.00;100.00;-23815.09;5031437;28;20187;-69
2024/01/21 01:14:17;;;;;;;1.50;1.40;;;;;;;0.25;100.00;-23822.25;5031673;28;20180;-74
2024/01/21 01:16:43;;;;;;;1.50;1.40;;;;;;;0.13;100.00;-23818.69;5031001;28;20187;-71
2024/01/21 01:19:08;;;;;;;1.07;1.07;;;;;;;0.33;100.00;-23824.41;5031259;28;20201;-72
2024/01/21 01:21:34;;;;;;;1.10;1.10;;;;;;;0.08;100.00;-23817.25;5033854;28;20296;-70
2024/01/21 01:24:00;;;;;;;1.10;1.10;;;;;;;0.18;100.00;-23820.25;5036199;28;20658;-73
2024/01/21 01:26:25;;;;;;;1.10;1.10;;;;;;;0.12;100.00;-23818.53;5031441;28;20169;-73
2024/01/21 01:28:51;;;;;;;1.17;1.17;;;;;;;0.04;100.00;-23816.13;5031133;28;20181;-75
2024/01/21 01:31:17;;;;;;;1.50;1.40;;;;;;;-0.02;100.00;-23814.53;5030741;28;20744;-70
2024/01/21 01:33:43;;;;;;;1.47;1.37;;;;;;;0.10;100.00;-23817.81;5031245;28;20222;-69
2024/01/21 01:36:08;;;;;;;1.30;1.30;;;;;;;0.12;100.00;-23818.53;5030982;28;20571;-72
2024/01/21 01:38:34;;;;;;;1.00;1.00;;;;;;;0.00;100.00;-23815.09;5031254;28;20182;-71
2024/01/21 01:40:59;;;;;;;1.00;1.00;;;;;;;-0.26;100.00;-23807.81;5030973;28;20202;-72
2024/01/21 01:43:26;;;;;;;1.17;1.17;;;;;;;-0.25;100.00;-23807.94;5030721;28;20206;-72
2024/01/21 01:45:51;;;;;;;1.20;1.20;;;;;;;0.08;100.00;-23817.41;5030572;28;20182;-72
2024/01/21 01:48:18;;;;;;;1.20;1.20;;;;;;;-0.02;100.00;-23814.69;5029637;28;20228;-71
2024/01/21 01:50:44;;;;;;;1.03;1.03;;;;;;;0.06;100.00;-23816.81;5031023;28;20250;-70
2024/01/21 01:53:09;;;;;;;1.20;1.20;;;;;;;-0.18;100.00;-23809.94;5030854;28;20214;-72
2024/01/21 01:55:36;;;;;;;1.23;1.23;;;;;;;-0.07;100.00;-23813.09;5031890;28;20285;-71
2024/01/21 01:58:01;;;;;;;1.07;1.07;;;;;;;0.08;100.00;-23817.41;5037678;28;20178;-71
2024/01/21 02:00:28;;;;;;;1.20;1.20;;;;;;;-0.05;100.00;-23813.81;5035841;28;20209;-72
2024/01/21 02:02:53;;;;;;;1.30;1.30;;;;;;;-0.20;100.00;-23809.53;5037458;28;20239;-72
2024/01/21 02:05:19;;;;;;;1.30;1.23;;;;;;;0.12;100.00;-23818.41;5037680;28;20171;-71
2024/01/21 02:07:44;;;;;;;1.37;1.30;;;;;;;0.07;100.00;-23817.13;5037446;28;20185;-70
2024/01/21 02:10:10;;;;;;;1.20;1.20;;;;;;;-0.06;100.00;-23813.53;5037741;28;20644;-74
2024/01/21 02:12:40;;;;;;;1.13;1.13;;;;;;;-0.20;100.00;-23809.53;5035995;28;20189;-72
2024/01/21 02:15:06;;;;;;;1.40;1.30;;;;;;;0.17;100.00;-23819.84;5037520;28;20182;-73
2024/01/21 02:17:31;;;;;;;1.00;1.00;;;;;;;0.08;100.00;-23817.25;5037415;28;20170;-71
2024/01/21 02:19:57;;;;;;;1.30;1.30;;;;;;;0.17;100.00;-23819.97;5037003;28;20197;-71
2024/01/21 02:22:24;;;;;;;1.20;1.20;;;;;;;0.20;100.00;-23820.84;5036031;28;20209;-73
2024/01/21 02:24:49;;;;;;;1.53;1.43;;;;;;;-0.23;100.00;-23808.66;5036916;28;20248;-73
2024/01/21 02:27:14;;;;;;;1.10;1.10;;;;;;;-0.17;100.00;-23810.38;5037036;28;20258;-71
2024/01/21 02:29:40;;;;;;;1.30;1.30;;;;;;;-0.24;100.00;-23808.38;5042244;28;20175;-69
2024/01/21 02:32:05;;;;;;;1.10;1.10;;;;;;;-0.26;100.00;-23807.66;5039425;28;20205;-70
2024/01/21 02:34:31;;;;;;;0.93;0.93;;;;;;;-0.24;100.00;-23808.38;5037021;28;20218;-69
2024/01/21 02:36:56;;;;;;;1.00;1.00;;;;;;;0.02;100.00;-23815.69;5037199;28;20335;-69
2024/01/21 02:39:22;;;;;;;1.17;1.17;;;;;;;0.12;100.00;-23818.53;5037370;28;20178;-73
2024/01/21 02:41:47;;;;;;;1.00;1.00;;;;;;;-0.23;100.00;-23808.53;5037202;28;20190;-71
2024/01/21 02:44:13;;;;;;;1.00;1.00;;;;;;;0.14;100.00;-23818.97;5035128;28;20243;-70
2024/01/21 02:46:38;;;;;;;1.57;1.47;;;;;;;-0.19;100.00;-23809.81;5037138;28;20215;-72
2024/01/21 02:49:04;;;;;;;1.47;1.37;;;;;;;-0.14;100.00;-23811.09;5036792;28;20221;-75
2024/01/21 02:51:30;;;;;;;1.30;1.20;;;;;;;-0.15;100.00;-23810.81;5035753;28;20182;-72
2024/01/21 02:53:56;;;;;;;1.30;1.20;;;;;;;-0.14;100.00;-23811.25;5035443;28;20175;-73
2024/01/21 02:56:23;;;;;;;1.60;1.50;;;;;;;0.19;100.00;-23820.41;5037209;28;20672;-72
2024/01/21 02:58:52;;;;;;;1.03;1.03;;;;;;;0.06;100.00;-23816.69;5036061;28;20174;-71
2024/01/21 03:01:19;;;;;;;1.10;1.10;;;;;;;-0.19;100.00;-23809.66;5037007;28;20365;-73
2024/01/21 03:03:45;;;;;;;1.53;1.43;;;;;;;-0.05;100.00;-23813.81;5036083;28;20173;-72
2024/01/21 03:06:11;;;;;;;1.10;1.10;;;;;;;0.03;100.00;-23815.81;5036928;28;20253;-72
2024/01/21 03:08:37;;;;;;;1.07;1.07;;;;;;;-0.01;100.00;-23814.81;5033213;28;20600;-74
2024/01/21 03:11:03;;;;;;;1.40;1.30;;;;;;;-0.01;100.00;-23814.81;5033649;28;20642;-74
2024/01/21 03:13:28;;;;;;;1.00;1.00;;;;;;;0.12;100.00;-23818.41;5033456;28;20218;-72
2024/01/21 03:15:54;;;;;;;1.10;1.10;;;;;;;-0.23;100.00;-23808.66;5033653;28;20205;-73
2024/01/21 03:18:20;;;;;;;1.20;1.20;;;;;;;0.06;100.00;-23816.81;5033389;28;20645;-73
2024/01/21 03:20:46;;;;;;;1.10;1.10;;;;;;;-0.19;100.00;-23809.81;5033497;28;20194;-70
2024/01/21 03:23:11;;;;;;;1.53;1.43;;;;;;;0.05;100.00;-23816.41;5033371;28;20187;-73
2024/01/21 03:25:37;;;;;;;1.53;1.43;;;;;;;-0.11;100.00;-23812.09;5032995;28;20179;-71
2024/01/21 03:28:03;;;;;;;1.10;1.10;;;;;;;0.00;100.00;-23815.25;5033640;28;20222;-73
2024/01/21 03:30:29;;;;;;;1.20;1.20;;;;;;;0.10;100.00;-23817.81;5033446;28;20185;-70
2024/01/21 03:32:54;;;;;;;1.10;1.10;;;;;;;-0.20;100.00;-23809.53;5033097;28;20190;-71
2024/01/21 03:35:20;;;;;;;2.20;1.60;;;;;;;-0.14;100.00;-23811.25;5033589;28;20177;-73
2024/01/21 03:37:45;;;;;;;1.17;1.17;;;;;;;-0.15;100.00;-23810.97;5038199;28;20235;-69
2024/01/21 03:40:10;;;;;;;1.10;1.10;;;;;;;-0.31;100.00;-23806.22;5035010;28;20210;-74
2024/01/21 03:42:36;;;;;;;1.00;1.00;;;;;;;-0.12;100.00;-23811.81;5033225;28;20171;-71
2024/01/21 03:45:01;;;;;;;1.43;1.33;;;;;;;0.05;100.00;-23816.53;5033308;28;20169;-73
2024/01/21 03:47:27;;;;;;;1.80;1.70;;;;;;;-0.26;100.00;-23807.66;5033035;28;20177;-72
2024/01/21 03:49:52;;;;;;;1.00;1.00;;;;;;;-0.33;100.00;-23805.81;5031736;28;20210;-69
2024/01/21 03:52:18;;;;;;;0.90;0.90;;;;;;;-0.03;100.00;-23814.38;5031637;28;20649;-72
2024/01/21 03:54:44;;;;;;;1.10;1.10;;;;;;;-0.37;100.00;-23804.66;5032857;28;20250;-74
2024/01/21 03:57:10;;;;;;;1.83;1.73;;;;;;;0.05;100.00;-23816.53;5031041;28;20177;-73
2024/01/21 03:59:35;;;;;;;1.50;1.40;;;;;;;-0.37;100.00;-23804.50;5032699;28;20770;-72
2024/01/21 04:02:01;;;;;;;1.10;1.10;;;;;;;-0.12;100.00;-23811.81;5032666;28;20175;-72
2024/01/21 04:04:27;;;;;;;1.43;1.40;;;;;;;-0.16;100.00;-23810.66;5032275;28;20736;-72
2024/01/21 04:06:52;;;;;;;1.17;1.17;;;;;;;-0.24;100.00;-23808.38;5032719;28;20189;-73
2024/01/21 04:09:23;;;;;;;1.77;1.67;;;;;;;-0.17;100.00;-23810.25;5032321;28;20179;-72
2024/01/21 04:11:49;;;;;;;1.10;1.10;;;;;;;-0.08;100.00;-23812.97;5032587;28;20181;-74
2024/01/21 04:14:14;;;;;;;1.20;1.20;;;;;;;-0.20;100.00;-23809.53;5031137;28;20190;-72
2024/01/21 04:16:39;;;;;;;1.30;1.30;;;;;;;-0.40;100.00;-23803.66;5032568;28;20293;-72
2024/01/21 04:19:05;;;;;;;3.50;1.50;;;;;;;0.00;100.00;-23815.09;5032255;28;20179;-71
2024/01/21 04:21:32;;;;;;;1.20;1.20;;;;;;;-0.11;100.00;-23812.09;5030942;28;20278;-70
2024/01/21 04:23:58;;;;;;;1.10;1.10;;;;;;;-0.22;100.00;-23808.94;5030540;28;20192;-71
2024/01/21 04:26:24;;;;;;;1.20;1.20;;;;;;;-0.28;100.00;-23807.09;5032198;28;20174;-72
2024/01/21 04:28:49;;;;;;;1.30;1.27;;;;;;;0.02;100.00;-23815.53;5032872;28;20162;-70
2024/01/21 04:31:15;;;;;;;1.60;1.50;;;;;;;-0.01;100.00;-23814.81;5032133;28;20181;-71
2024/01/21 04:33:40;;;;;;;1.00;1.00;;;;;;;-0.32;100.00;-23806.09;5032187;28;20305;-71
2024/01/21 04:36:06;;;;;;;1.00;1.00;;;;;;;-0.22;100.00;-23808.81;5030576;28;20226;-70
2024/01/21 04:38:31;;;;;;;1.20;1.20;;;;;;;-0.05;100.00;-23813.69;5031654;28;20177;-70
2024/01/21 04:40:57;;;;;;;1.50;1.40;;;;;;;-0.34;100.00;-23805.38;5031593;28;20205;-71
2024/01/21 04:43:22;;;;;;;1.10;1.10;;;;;;;-0.13;100.00;-23811.53;5031939;28;20178;-72
2024/01/21 04:45:48;;;;;;;1.10;1.10;;;;;;;-0.12;100.00;-23811.81;5037359;28;20174;-68
2024/01/21 04:48:13;;;;;;;1.37;1.27;;;;;;;-0.24;100.00;-23808.38;5034035;28;20261;-72
2024/01/21 04:50:38;;;;;;;1.30;1.20;;;;;;;-0.43;100.00;-23802.94;5031851;28;20202;-72
2024/01/21 04:53:04;;;;;;;1.00;1.00;;;;;;;-0.51;100.00;-23800.78;5032001;28;20268;-73
2024/01/21 04:55:29;;;;;;;1.67;1.57;;;;;;;-0.19;100.00;-23809.81;5030290;28;20674;-70
2024/01/21 04:57:55;;;;;;;1.00;1.00;;;;;;;-0.16;100.00;-23810.66;5032211;28;20188;-74
2024/01/21 05:00:20;;;;;;;1.00;1.00;;;;;;;-0.57;100.00;-23798.91;5031705;28;20268;-70
2024/01/21 05:02:46;;;;;;;1.53;1.40;;;;;;;-0.40;100.00;-23803.78;5031886;28;20279;-71
2024/01/21 05:05:11;;;;;;;1.60;1.50;;;;;;;-0.58;100.00;-23798.78;5030704;28;20703;-70
2024/01/21 05:07:36;;;;;;;2.13;2.00;;;;;;;-0.55;100.00;-23799.63;5031583;28;20264;-73
2024/01/21 05:10:03;;;;;;;1.50;1.40;;;;;;;-0.26;100.00;-23807.66;5031350;28;20185;-71
2024/01/21 05:12:28;;;;;;;1.53;1.43;;;;;;;-0.45;100.00;-23802.34;5031540;28;20200;-69
2024/01/21 05:14:55;;;;;;;1.23;1.23;;;;;;;-0.71;100.00;-23794.91;5031624;28;20263;-71
2024/01/21 05:17:21;;;;;;;1.67;1.57;;;;;;;-0.75;100.00;-23793.91;5031477;28;20264;-68
2024/01/21 05:19:46;;;;;;;1.13;1.13;;;;;;;-0.38;100.00;-23804.22;5031306;28;20679;-72
2024/01/21 05:22:12;;;;;;;1.40;1.33;;;;;;;-0.79;100.00;-23792.75;5031364;28;20173;-72
2024/01/21 05:24:37;;;;;;;1.30;1.30;;;;;;;-0.73;100.00;-23794.34;5031276;28;20557;-70
2024/01/21 05:27:03;;;;;;;1.37;1.33;;;;;;;-0.60;100.00;-23798.06;5031508;28;20264;-71
2024/01/21 05:29:28;;;;;;;1.77;1.67;;;;;;;-0.92;100.00;-23789.16;5030907;28;20196;-70
2024/01/21 05:31:54;;;;;;;1.40;1.30;;;;;;;-0.51;100.00;-23800.78;5030778;28;20182;-71
2024/01/21 05:34:19;;;;;;;1.70;1.60;;;;;;;-0.82;100.00;-23791.75;5031175;28;20212;-69
2024/01/21 05:36:45;;;;;;;1.83;1.73;;;;;;;-0.84;100.00;-23791.31;5031048;28;20191;-70
2024/01/21 05:39:11;;;;;;;1.40;1.40;;;;;;;-0.57;100.00;-23799.06;5030754;28;20238;-71
2024/01/21 05:41:36;;;;;;;1.10;1.10;;;;;;;-0.68;100.00;-23795.75;5031153;28;20327;-75
2024/01/21 05:44:02;;;;;;;1.47;1.37;;;;;;;-0.93;100.00;-23788.88;5029874;28;20217;-73
2024/01/21 05:46:27;;;;;;;1.37;1.23;;;;;;;-1.00;100.00;-23786.88;5031059;28;20620;-74
2024/01/21 05:48:53;;;;;;;1.37;1.30;;;;;;;-0.60;100.00;-23798.19;5030980;28;20215;-70
2024/01/21 05:51:18;;;;;;;1.10;1.10;;;;;;;-0.54;100.00;-23799.78;5031012;28;20695;-71
2024/01/21 05:53:43;;;;;;;1.00;1.00;;;;;;;-0.78;100.00;-23793.03;5038021;28;20173;-69
2024/01/21 05:56:10;;;;;;;1.77;1.67;;;;;;;-0.55;100.00;-23799.50;5031622;28;20183;-71
2024/01/21 05:58:35;;;;;;;1.70;1.60;;;;;;;-0.78;100.00;-23792.91;5029719;28;20172;-71
2024/01/21 06:01:01;;;;;;;3.20;2.10;;;;;;;-0.79;100.00;-23792.63;5029577;28;20269;-74
2024/01/21 06:03:26;;;;;;;1.83;1.50;;;;;;;-0.75;100.00;-23793.75;5029331;28;20193;-72
2024/01/21 06:05:52;;;;;;;1.13;1.13;;;;;;;-0.54;100.00;-23799.91;5030312;28;20177;-71
2024/01/21 06:08:17;;;;;;;1.43;1.37;;;;;;;-0.50;100.00;-23800.94;5030664;28;20173;-71
2024/01/21 06:10:43;;;;;;;1.63;1.40;;;;;;;-0.47;100.00;-23801.78;5030663;28;20636;-71
2024/01/21 06:13:08;;;;;;;1.50;1.43;;;;;;;-0.74;100.00;-23794.06;5030740;28;20662;-72
2024/01/21 06:15:34;;;;;;;1.17;1.17;;;;;;;-0.66;100.00;-23796.34;5030628;28;20196;-73
2024/01/21 06:17:59;;;;;;;3.57;1.97;;;;;;;-0.34;100.00;-23805.38;5030503;28;20363;-73
2024/01/21 06:20:24;;;;;;;1.03;1.03;;;;;;;-0.52;100.00;-23800.50;5030525;28;20615;-70
2024/01/21 06:22:50;;;;;;;1.00;1.00;;;;;;;-0.28;100.00;-23807.22;5030190;28;20196;-73
2024/01/21 06:25:15;;;;;;;1.60;1.50;;;;;;;-0.21;100.00;-23809.22;5030893;28;20178;-70
2024/01/21 06:27:40;;;;;;;1.07;1.07;;;;;;;-0.26;100.00;-23807.81;5030831;28;20176;-69
2024/01/21 06:30:13;;;;;;;1.73;1.63;;;;;;;-0.30;100.00;-23806.50;5030563;28;20255;-72
2024/01/21 06:32:39;;;;;;;1.50;1.40;;;;;;;-0.72;100.00;-23794.75;5029237;28;20178;-70
2024/01/21 06:35:05;;;;;;;2.07;1.87;;;;;;;-0.46;100.00;-23802.22;5030743;28;20319;-70
2024/01/21 06:37:31;;;;;;;1.10;1.10;;;;;;;-0.50;100.00;-23800.94;5030398;28;20175;-70
2024/01/21 06:39:57;;;;;;;1.20;1.20;;;;;;;-0.71;100.00;-23794.91;5030396;28;20271;-74
2024/01/21 06:42:22;;;;;;;1.10;1.10;;;;;;;-0.49;100.00;-23801.34;5032218;28;20258;-71
2024/01/21 06:44:48;;;;;;;1.30;1.30;;;;;;;-1.06;100.00;-23785.16;5034039;28;20614;-73
2024/01/21 06:47:13;;;;;;;1.13;1.13;;;;;;;-0.64;100.00;-23797.06;5034468;28;20165;-70
2024/01/21 06:49:38;;;;;;;1.27;1.27;;;;;;;-0.91;100.00;-23789.31;5034181;28;20177;-72
2024/01/21 06:52:07;;;;;;;1.80;1.70;;;;;;;-0.75;100.00;-23793.75;5033881;28;20693;-72
2024/01/21 06:54:33;;;;;;;1.50;1.40;;;;;;;-1.03;100.00;-23786.03;5034236;28;20255;-71
2024/01/21 06:56:58;;;;;;;1.47;1.37;;;;;;;-0.79;100.00;-23792.63;5033776;28;20283;-75
2024/01/21 06:59:24;;;;;;;1.13;1.13;;;;;;;-0.72;100.00;-23794.63;5033133;28;20181;-72
2024/01/21 07:01:50;;;;;;;1.47;1.37;;;;;;;-1.13;100.00;-23783.16;5041070;28;20291;-74
2024/01/21 07:04:18;;;;;;;2.73;1.83;;;;;;;-0.97;100.00;-23787.59;5033997;28;20179;-71
2024/01/21 07:06:44;;;;;;;1.90;1.80;;;;;;;-0.94;100.00;-23788.47;5033641;28;20165;-71
2024/01/21 07:09:10;;;;;;;2.00;1.37;;;;;;;-1.07;100.00;-23784.88;5033641;28;20173;-69
2024/01/21 07:11:42;;;;;;;2.33;2.23;;;;;;;-1.02;100.00;-23786.31;5033280;28;20565;-70
2024/01/21 07:14:08;;;;;;;1.50;1.40;;;;;;;-1.15;100.00;-23782.56;5033254;28;20281;-70
2024/01/21 07:16:33;;;;;;;1.63;1.43;;;;;;;-1.32;100.00;-23777.69;5033800;28;20177;-73
2024/01/21 07:18:59;;;;;;;2.03;1.53;;;;;;;-1.37;100.00;-23776.41;5032895;28;20168;-71
2024/01/21 07:21:24;;;;;;;1.10;1.10;;;;;;;-1.22;100.00;-23780.44;5033165;28;20362;-71
2024/01/21 07:23:49;;;;;;;1.10;1.10;;;;;;;-1.01;100.00;-23786.59;5033302;28;20181;-76
2024/01/21 07:26:15;;;;;;;1.10;1.10;;;;;;;-1.08;100.00;-23784.44;5031768;28;20246;-71
2024/01/21 07:28:40;;;;;;;1.20;1.20;;;;;;;-1.36;100.00;-23776.56;5031629;28;20179;-72
2024/01/21 07:31:06;;;;;;;1.50;1.40;;;;;;;-1.38;100.00;-23776.13;5033422;28;20609;-74
2024/01/21 07:33:31;;;;;;;1.60;1.50;;;;;;;-0.94;100.00;-23788.47;5032869;28;20219;-74
2024/01/21 07:35:58;;;;;;;1.60;1.50;;;;;;;-1.26;100.00;-23779.41;5031713;28;20182;-73
2024/01/21 07:38:23;;;;;;;1.10;1.10;;;;;;;-1.29;100.00;-23778.56;5033034;28;20177;-75
2024/01/21 07:40:49;;;;;;;1.43;1.37;;;;;;;-0.84;100.00;-23791.19;5033126;28;20200;-75
2024/01/21 07:43:16;;;;;;;1.60;1.50;;;;;;;-1.07;100.00;-23784.72;5032806;28;20245;-69
2024/01/21 07:45:41;;;;;;;2.70;2.50;;;;;;;-0.81;100.00;-23792.03;5033064;28;20203;-71
2024/01/21 07:48:08;;;;;;;2.23;2.03;;;;;;;-0.62;100.00;-23797.50;5033194;28;20220;-70
2024/01/21 07:50:33;;;;;;;2.10;1.90;;;;;;;-0.67;100.00;-23796.06;5032216;28;20169;-72
2024/01/21 07:52:59;;;;;;;1.97;1.87;;;;;;;-0.60;100.00;-23798.06;5032824;28;20211;-72
2024/01/21 07:55:24;;;;;;;1.70;1.60;;;;;;;-0.25;100.00;-23808.09;5032198;28;20173;-69
2024/01/21 07:57:49;;;;;;;1.40;1.33;;;;;;;-0.13;100.00;-23811.38;5032717;28;20213;-74
2024/01/21 08:00:15;;;;;;;1.17;1.17;;;;;;;-0.11;100.00;-23812.09;5032553;28;20198;-72
2024/01/21 08:02:41;;;;;;;1.87;1.77;;;;;;;-0.12;100.00;-23809.97;5031384;28;20190;-74
2024/01/21 08:05:07;;;;;;;1.73;1.63;;;;;;;-0.02;100.00;-21619.78;5032576;28;20197;-71
2024/01/21 08:07:33;;;;;;;1.10;1.10;;;;;;;-0.05;100.00;-21305.78;5039540;28;20636;-72
2024/01/21 08:09:58;;;;;;;1.80;1.70;;;;;;;-0.13;100.00;-21930.47;5032668;28;20177;-71
2024/01/21 08:12:24;;;;;;;1.53;1.43;;;;;;;0.22;100.00;-21312.16;5031195;28;20186;-74
2024/01/21 08:14:49;;;;;;;1.33;1.27;;;;;;;0.34;100.00;-19746.72;5032216;28;20163;-73
2024/01/21 08:17:14;;;;;;;1.20;1.20;;;;;;;0.17;100.00;-19743.13;5032751;28;20163;-74
2024/01/21 08:19:40;;;;;;;1.20;1.20;;;;;;;0.36;100.00;-17236.16;5032434;28;20182;-70
2024/01/21 08:22:07;;;;;;;2.13;2.03;;;;;;;0.61;100.00;-14726.50;5031655;28;20215;-69
2024/01/21 08:24:33;;;;;;;1.53;1.43;;;;;;;0.59;100.00;-15983.50;5041208;28;20179;-73
2024/01/21 08:26:59;;;;;;;2.93;2.23;;;;;;;0.70;100.00;-17242.09;5032164;28;20183;-74
2024/01/21 08:29:24;;;;;;;1.70;1.60;;;;;;;0.61;100.00;-17554.59;5032147;28;20627;-72
2024/01/21 08:31:50;;;;;;;1.20;1.20;;;;;;;0.42;100.00;-16923.25;5031404;28;20262;-71
2024/01/21 08:34:16;;;;;;;1.50;1.40;;;;;;;0.25;100.00;-16920.31;5040235;28;20215;-69
2024/01/21 08:36:41;;;;;;;1.83;1.73;;;;;;;0.36;100.00;-18805.78;5031832;28;20179;-70
2024/01/21 08:39:09;;;;;;;1.20;1.20;;;;;;;0.32;100.00;-20060.03;5032036;28;20174;-71
2024/01/21 08:41:35;;;;;;;2.97;1.50;;;;;;;0.58;100.00;-20065.84;5031866;28;20207;-68
2024/01/21 08:44:02;;;;;;;1.50;1.40;;;;;;;0.13;100.00;-20996.56;5031904;28;20317;-72
2024/01/21 08:46:27;;;;;;;1.53;1.43;;;;;;;0.88;100.00;-20386.53;5031567;28;20206;-71
2024/01/21 08:48:53;;;;;;;2.70;1.83;;;;;;;0.42;100.00;-16609.19;5029584;28;20616;-74
2024/01/21 08:51:18;;;;;;;2.00;1.80;;;;;;;0.44;100.00;-16295.31;5031390;28;20172;-73
2024/01/21 08:53:43;;;;;;;1.30;1.30;;;;;;;0.72;100.00;-15985.53;5031736;28;20542;-73
2024/01/21 08:56:09;;;;;;;1.57;1.47;;;;;;;0.84;100.00;-16301.69;5031312;28;20654;-71
2024/01/21 08:58:35;;;;;;;1.47;1.40;;;;;;;0.71;100.00;-15671.00;5031477;28;20168;-71
2024/01/21 09:01:00;;;;;;;1.37;1.33;;;;;;;0.81;100.00;-15043.69;5030742;28;20210;-72
2024/01/21 09:03:26;;;;;;;1.40;1.30;;;;;;;0.67;100.00;-15041.78;5026703;28;20179;-73
2024/01/21 09:05:51;;;;;;;1.10;1.10;;;;;;;0.82;100.00;-16930.06;5027780;28;20171;-76
2024/01/21 09:08:17;;;;;;;1.30;1.30;;;;;;;0.95;100.00;-16932.09;5028684;28;20186;-70
2024/01/21 09:10:43;;;;;;;1.60;1.50;;;;;;;1.25;100.00;-15993.66;5029608;28;20190;-70
2024/01/21 09:13:09;;;;;;;1.07;1.07;;;;;;;1.11;100.00;-15362.47;5034921;28;20175;-70
2024/01/21 09:15:34;;;;;;;3.33;2.20;;;;;;;1.39;100.00;-14422.16;5029305;28;20262;-70
2024/01/21 09:18:00;;;;;;;1.20;1.20;;;;;;;1.21;100.00;-14734.56;5030509;28;20200;-69
2024/01/21 09:20:25;;;;;;;1.50;1.40;;;;;;;0.84;100.00;-11583.19;5031245;28;20698;-70
2024/01/21 09:22:51;;;;;;;1.30;1.23;;;;;;;1.15;100.00;-13789.66;5031455;28;20186;-68
2024/01/21 09:25:16;;;;;;;3.77;1.97;;;;;;;1.03;100.00;-15046.69;5031198;28;20247;-73
2024/01/21 09:27:42;;;;;;;1.50;1.40;;;;;;;1.30;100.00;-13476.69;5031264;28;20175;-68
2024/01/21 09:30:08;;;;;;;1.50;1.40;;;;;;;1.01;100.00;-14731.84;5031266;28;20257;-72
2024/01/21 09:32:33;;;;;;;1.53;1.43;;;;;;;0.84;100.00;-15044.09;5030853;28;20180;-70
2024/01/21 09:34:58;;;;;;;1.90;1.80;;;;;;;0.93;100.00;-15045.28;5031541;28;20309;-71
2024/01/21 09:37:24;;;;;;;2.00;1.70;;;;;;;0.98;100.00;-15675.00;5031319;28;20244;-67
2024/01/21 09:39:49;;;;;;;1.03;1.03;;;;;;;0.82;100.00;-14729.41;5030785;28;20210;-67
2024/01/21 09:42:17;;;;;;;1.03;1.03;;;;;;;1.15;100.00;-14733.81;5030994;28;20171;-68
2024/01/21 09:44:43;;;;;;;1.57;1.47;;;;;;;1.38;100.00;-14107.19;5030765;28;20175;-66
2024/01/21 09:47:10;;;;;;;1.43;1.37;;;;;;;1.32;100.00;-13791.69;5030718;28;20227;-68
2024/01/21 09:49:36;;;;;;;1.57;1.47;;;;;;;1.22;100.00;-12531.16;5031412;28;20180;-70
2024/01/21 09:52:04;;;;;;;1.20;1.20;;;;;;;1.26;100.00;-14105.75;5029813;28;20191;-67
2024/01/21 09:54:29;;;;;;;1.80;1.70;;;;;;;1.35;100.00;-11902.44;5030636;28;20267;-66
2024/01/21 09:56:55;;;;;;;1.00;1.00;;;;;;;1.68;100.00;-9067.31;5030543;28;20186;-67
2024/01/21 09:59:20;;;;;;;1.10;1.10;;;;;;;1.44;100.00;-9696.94;5030259;28;20669;-64
2024/01/21 10:01:46;;;;;;;1.40;1.30;;;;;;;1.89;100.00;-9383.72;5030698;28;20262;-69
2024/01/21 10:04:14;;;;;;;1.57;1.47;;;;;;;1.50;100.00;-5911.25;5030405;28;20635;-68
2024/01/21 10:06:39;;;;;;;1.40;1.30;;;;;;;1.68;100.00;-1803.38;5029278;28;20179;-68
2024/01/21 10:09:19;;;;;;;1.50;1.40;;;;;;;1.60;100.00;-3384.28;5030234;28;20198;-65
2024/01/21 10:12:02;;;;;;;1.20;1.20;;;;;;;1.02;100.00;-9064.59;5030503;28;20164;-70
2024/01/21 10:14:28;;;;;;;2.23;1.77;;;;;;;1.39;100.00;-8750.78;5030505;28;20175;-67
2024/01/21 10:16:55;;;;;;;1.13;1.13;;;;;;;1.63;100.00;-10013.31;5031371;28;20555;-68
2024/01/21 10:19:26;;;;;;;1.70;1.60;;;;;;;1.69;100.00;-13481.03;5038779;28;20183;-67
2024/01/21 10:21:51;;;;;;;1.70;1.60;;;;;;;1.86;100.00;-13798.03;5034592;28;20202;-69
2024/01/21 10:24:23;;;;;;;1.50;1.40;;;;;;;1.46;100.00;-11903.41;5034492;28;20211;-69
2024/01/21 10:26:48;;;;;;;1.10;1.10;;;;;;;1.93;100.00;-12538.09;5034240;28;20171;-71
2024/01/21 10:29:15;;;;;;;1.70;1.60;;;;;;;1.65;100.00;-8751.72;5034463;28;20180;-68
2024/01/21 10:31:40;;;;;;;2.23;2.13;;;;;;;2.01;100.00;-11908.19;5034598;28;20179;-71
2024/01/21 10:34:06;;;;;;;2.10;1.93;;;;;;;1.96;100.00;-10961.56;5034882;28;20249;-71
2024/01/21 10:36:33;;;;;;;1.30;1.30;;;;;;;1.72;100.00;-13166.34;5032982;28;20191;-73
2024/01/21 10:39:03;;;;;;;1.53;1.43;;;;;;;2.30;100.00;-12857.09;5034433;28;20172;-70
2024/01/21 10:41:30;;;;;;;1.30;1.30;;;;;;;1.99;100.00;-13799.59;5034065;28;20230;-72
2024/01/21 10:43:57;;;;;;;1.60;1.50;;;;;;;2.30;100.00;-14749.06;5034366;28;20637;-69
2024/01/21 10:46:26;;;;;;;2.47;1.80;;;;;;;2.37;100.00;-16010.97;5034593;28;20643;-67
2024/01/21 10:48:57;;;;;;;1.40;1.30;;;;;;;2.26;100.00;-16324.25;5034123;28;20207;-69
2024/01/21 10:51:23;;;;;;;2.80;2.03;;;;;;;2.20;100.00;-14432.59;5032633;28;20266;-65
2024/01/21 10:53:52;;;;;;;1.50;1.40;;;;;;;2.16;100.00;-16322.81;5032491;28;20652;-68
2024/01/21 10:56:19;;;;;;;2.10;1.93;;;;;;;2.37;100.00;-17271.25;5033085;28;20646;-71
2024/01/21 10:58:46;;;;;;;3.50;2.13;;;;;;;2.36;100.00;-19160.69;5031668;28;20227;-69
2024/01/21 11:01:13;;;;;;;1.97;1.87;;;;;;;2.57;100.00;-16959.72;5032669;28;20202;-69
2024/01/21 11:03:40;;;;;;;2.00;1.90;;;;;;;2.93;100.00;-16334.94;5031547;28;20179;-66
2024/01/21 11:06:08;;;;;;;2.87;2.67;;;;;;;2.80;100.00;-13177.88;5033054;28;20246;-69
2024/01/21 11:08:35;;;;;;;1.70;1.60;;;;;;;2.85;100.00;-9072.03;5034267;28;20554;-66
2024/01/21 11:11:22;;;;;;;1.13;1.13;;;;;;;2.95;100.00;-10336.69;5033928;28;20217;-66
2024/01/21 11:13:49;;;;;;;1.97;1.87;;;;;;;2.97;100.00;-8756.38;5033726;28;20182;-69
2024/01/21 11:16:26;;;;;;;1.50;1.40;;;;;;;3.27;100.00;-10338.63;5033630;28;20611;-69